Time;durP1;ratioP1;P1;durP2;ratioP2;P2;SDS_P1;SDS_P2;PMS_P1;PMS_P2;Temp;Humidity;BMP_temperature;BMP_pressure;BME280_temperature;BME280_humidity;BME280_pressure;Samples;Min_cycle;Max_cycle;Signal;HPM_P1;HPM_P2
2022/05/05 00:01:33;;;;;;;118.07;106.97;;;11.70;53.70;;;;;;4997276;28;20096;-74
2022/05/05 00:04:01;;;;;;;117.72;106.50;;;11.70;53.90;;;;;;4997238;28;20128;-74
2022/05/05 00:06:28;;;;;;;117.40;106.50;;;11.60;54.10;;;;;;4997302;28;20046;-74
2022/05/05 00:08:56;;;;;;;117.32;106.43;;;11.60;54.30;;;;;;5014749;28;20196;-74
2022/05/05 00:14:28;;;;;;;116.70;106.03;;;11.50;54.40;;;;;;4979055;28;20113;-74
2022/05/05 00:16:57;;;;;;;118.93;107.57;;;11.50;54.40;;;;;;4996745;28;20046;-74
2022/05/05 00:19:24;;;;;;;116.40;105.45;;;11.50;54.40;;;;;;4996800;28;20470;-74
2022/05/05 00:21:51;;;;;;;117.05;106.47;;;11.40;54.60;;;;;;5014453;28;20058;-74
2022/05/05 00:24:20;;;;;;;116.35;105.85;;;11.30;54.60;;;;;;5014302;28;20050;-74
2022/05/05 00:26:48;;;;;;;115.70;105.00;;;11.30;54.80;;;;;;4996823;28;20133;-74
2022/05/05 00:29:15;;;;;;;116.30;105.65;;;11.30;54.80;;;;;;4996491;28;20535;-74
2022/05/05 00:31:43;;;;;;;116.38;105.57;;;11.30;54.90;;;;;;5014419;28;20050;-74
2022/05/05 00:34:10;;;;;;;116.05;104.95;;;11.30;55.10;;;;;;4996641;28;20064;-74
2022/05/05 00:36:37;;;;;;;115.03;104.03;;;11.20;55.10;;;;;;4996641;28;20050;-74
2022/05/05 00:39:05;;;;;;;114.35;103.85;;;11.20;55.30;;;;;;4996593;28;20080;-74
2022/05/05 00:41:34;;;;;;;118.80;107.55;;;11.10;55.30;;;;;;4996884;28;20042;-74
2022/05/05 00:44:03;;;;;;;117.03;105.90;;;11.10;55.50;;;;;;4996379;28;20054;-74
2022/05/05 00:46:30;;;;;;;116.35;105.55;;;11.10;55.60;;;;;;4996270;28;20105;-74
2022/05/05 00:48:58;;;;;;;114.75;104.15;;;11.00;55.60;;;;;;4996159;28;20137;-74
2022/05/05 00:51:25;;;;;;;114.00;103.35;;;11.00;55.60;;;;;;4996117;28;20054;-74
2022/05/05 00:53:54;;;;;;;115.75;104.30;;;11.00;55.50;;;;;;4996759;28;20498;-74
2022/05/05 00:56:22;;;;;;;116.80;105.68;;;11.00;55.50;;;;;;4995937;28;20546;-74
2022/05/05 00:58:51;;;;;;;117.03;106.20;;;11.00;55.60;;;;;;4996175;28;20486;-74
2022/05/05 01:01:20;;;;;;;115.75;105.03;;;11.00;55.90;;;;;;4996118;28;20148;-74
2022/05/05 01:03:49;;;;;;;113.43;102.85;;;10.90;56.00;;;;;;4996419;28;20047;-74
2022/05/05 01:06:17;;;;;;;115.82;104.70;;;10.90;56.00;;;;;;5013644;28;20054;-74
2022/05/05 01:08:45;;;;;;;115.97;105.20;;;10.90;56.10;;;;;;4995790;28;20054;-74
2022/05/05 01:11:12;;;;;;;113.50;103.07;;;10.90;56.00;;;;;;4996276;28;20061;-74
2022/05/05 01:13:40;;;;;;;114.20;103.82;;;10.80;56.00;;;;;;4996061;28;20159;-74
2022/05/05 01:16:09;;;;;;;114.40;103.88;;;10.80;56.20;;;;;;4996121;28;20182;-74
2022/05/05 01:18:36;;;;;;;115.35;104.45;;;10.80;56.30;;;;;;4995756;28;20101;-74
2022/05/05 01:21:03;;;;;;;114.07;103.68;;;10.80;56.30;;;;;;4996012;28;20046;-74
2022/05/05 01:23:32;;;;;;;114.32;103.72;;;10.80;56.50;;;;;;5012868;28;20062;-74
2022/05/05 01:28:45;;;;;;;114.82;103.78;;;10.70;56.60;;;;;;4995667;28;20046;-74
2022/05/05 01:31:12;;;;;;;114.45;103.55;;;10.70;56.80;;;;;;4995811;28;20054;-74
2022/05/05 01:33:40;;;;;;;114.68;103.70;;;10.60;56.80;;;;;;4996303;28;20412;-74
2022/05/05 01:36:08;;;;;;;114.55;103.38;;;10.60;57.00;;;;;;4995834;28;20050;-74
2022/05/05 01:38:40;;;;;;;112.88;102.18;;;10.60;57.10;;;;;;5013285;28;20197;-74
2022/05/05 01:41:08;;;;;;;115.90;104.85;;;10.60;57.30;;;;;;4995911;28;20547;-74
2022/05/05 01:43:37;;;;;;;114.00;103.38;;;10.50;57.20;;;;;;4995657;28;20057;-74
2022/05/05 01:46:05;;;;;;;112.90;102.40;;;10.50;57.30;;;;;;4995856;28;20093;-74
2022/05/05 01:48:33;;;;;;;114.80;104.13;;;10.50;57.50;;;;;;4995220;28;20054;-74
2022/05/05 01:51:00;;;;;;;114.88;104.10;;;10.50;57.60;;;;;;4995442;28;20535;-74
2022/05/05 01:53:27;;;;;;;113.68;103.00;;;10.50;57.90;;;;;;4995511;28;20137;-74
2022/05/05 01:55:55;;;;;;;115.72;104.85;;;10.50;58.10;;;;;;4995437;28;20058;-74
2022/05/05 01:58:23;;;;;;;115.00;104.03;;;10.40;58.20;;;;;;4994969;28;21081;-74
2022/05/05 02:00:49;;;;;;;113.93;103.32;;;10.40;58.10;;;;;;4995069;28;20485;-74
2022/05/05 02:03:16;;;;;;;116.13;105.28;;;10.40;58.10;;;;;;4995178;28;20053;-74
2022/05/05 02:05:44;;;;;;;114.18;103.53;;;10.40;58.30;;;;;;5012795;28;20536;-74
2022/05/05 02:08:12;;;;;;;114.60;103.28;;;10.40;58.50;;;;;;5012854;28;20050;-74
2022/05/05 02:10:40;;;;;;;115.50;104.43;;;10.40;58.50;;;;;;4994658;28;20047;-74
2022/05/05 02:13:09;;;;;;;113.75;103.05;;;10.40;58.60;;;;;;4995860;28;20129;-74
2022/05/05 02:15:37;;;;;;;113.85;103.00;;;10.30;58.60;;;;;;4994999;28;20501;-74
2022/05/05 02:18:09;;;;;;;113.90;103.38;;;10.30;58.60;;;;;;5011384;28;20061;-74
2022/05/05 02:20:37;;;;;;;115.50;104.43;;;10.30;58.90;;;;;;4995127;28;20050;-74
2022/05/05 02:23:04;;;;;;;113.93;102.95;;;10.30;59.10;;;;;;4995093;28;20121;-74
2022/05/05 02:25:31;;;;;;;113.55;102.78;;;10.20;59.30;;;;;;4994893;28;20054;-74
2022/05/05 02:27:58;;;;;;;113.95;103.30;;;10.20;59.40;;;;;;4994891;28;20056;-74
2022/05/05 02:30:28;;;;;;;114.88;103.97;;;10.20;59.50;;;;;;4994749;28;20141;-74
2022/05/05 02:32:56;;;;;;;114.13;103.32;;;10.20;59.70;;;;;;5012662;28;20113;-74
2022/05/05 02:35:23;;;;;;;115.38;104.38;;;10.20;59.80;;;;;;5012272;28;20054;-74
2022/05/05 02:40:35;;;;;;;113.75;102.68;;;10.10;59.90;;;;;;5012673;28;20538;-74
2022/05/05 02:43:03;;;;;;;114.47;103.50;;;10.10;60.00;;;;;;4995188;28;20493;-74
2022/05/05 02:45:31;;;;;;;111.72;101.38;;;10.10;60.30;;;;;;4994825;28;20050;-74
2022/05/05 02:47:59;;;;;;;113.38;102.68;;;10.00;60.50;;;;;;4994370;28;20433;-74
2022/05/05 02:50:26;;;;;;;114.00;103.15;;;10.00;60.60;;;;;;5012256;28;20062;-74
2022/05/05 02:52:54;;;;;;;112.80;102.18;;;9.90;61.10;;;;;;4995010;28;20054;-74
2022/05/05 02:55:20;;;;;;;113.15;102.65;;;9.90;60.80;;;;;;4994847;28;20134;-74
2022/05/05 02:57:47;;;;;;;112.97;102.47;;;9.90;61.30;;;;;;4994772;28;20077;-74
2022/05/05 03:00:14;;;;;;;112.00;101.47;;;9.90;60.90;;;;;;4994886;28;20177;-74
2022/05/05 03:02:44;;;;;;;113.18;102.78;;;9.90;61.00;;;;;;4994796;28;20130;-74
2022/05/05 03:05:11;;;;;;;114.65;103.82;;;9.90;61.30;;;;;;4994555;28;20053;-74
2022/05/05 03:07:39;;;;;;;113.40;102.75;;;9.90;61.50;;;;;;4994055;28;20042;-74
2022/05/05 03:10:07;;;;;;;114.43;103.78;;;9.90;61.80;;;;;;4994364;28;20066;-74
2022/05/05 03:12:34;;;;;;;113.70;102.95;;;9.80;61.80;;;;;;4994867;28;20046;-74
2022/05/05 03:15:01;;;;;;;114.97;104.40;;;9.80;61.90;;;;;;4994175;28;20850;-74
2022/05/05 03:17:27;;;;;;;115.43;104.88;;;9.80;61.90;;;;;;4994240;28;20050;-74
2022/05/05 03:19:56;;;;;;;113.95;103.10;;;9.80;62.20;;;;;;4994586;28;20440;-74
2022/05/05 03:22:23;;;;;;;115.05;104.25;;;9.80;62.50;;;;;;5014112;28;20489;-74
2022/05/05 03:24:50;;;;;;;115.15;104.07;;;9.70;62.70;;;;;;5015789;28;20054;-74
2022/05/05 03:27:17;;;;;;;115.68;104.88;;;9.70;63.00;;;;;;5015398;28;20050;-74
2022/05/05 03:29:44;;;;;;;114.18;103.47;;;9.70;63.30;;;;;;5015224;28;20080;-74
2022/05/05 03:32:11;;;;;;;114.45;103.55;;;9.60;63.50;;;;;;4997533;28;20468;-74
2022/05/05 03:34:38;;;;;;;114.75;104.25;;;9.70;63.70;;;;;;4997493;28;20050;-74
2022/05/05 03:37:07;;;;;;;117.18;106.28;;;9.60;63.80;;;;;;5014751;28;20058;-74
2022/05/05 03:39:34;;;;;;;114.82;103.72;;;9.60;63.90;;;;;;4997337;28;20057;-74
2022/05/05 03:42:01;;;;;;;113.82;103.05;;;9.50;64.00;;;;;;5015258;28;20050;-74
2022/05/05 03:44:28;;;;;;;115.82;104.68;;;9.50;64.20;;;;;;4997364;28;20073;-74
2022/05/05 03:46:55;;;;;;;114.82;104.03;;;9.50;64.40;;;;;;4996948;28;20092;-74
2022/05/05 03:49:22;;;;;;;115.40;104.55;;;9.50;64.40;;;;;;4996948;28;20042;-74
2022/05/05 03:51:49;;;;;;;115.63;104.78;;;9.40;64.40;;;;;;4997256;28;20145;-74
2022/05/05 03:54:17;;;;;;;117.35;106.65;;;9.40;64.40;;;;;;4997039;28;20125;-74
2022/05/05 03:56:45;;;;;;;115.57;104.38;;;9.40;64.70;;;;;;5014413;28;20054;-74
2022/05/05 03:59:12;;;;;;;115.07;104.38;;;9.40;65.00;;;;;;4996842;28;20058;-74
2022/05/05 04:01:39;;;;;;;114.75;103.50;;;9.40;64.60;;;;;;4997077;28;20046;-74
2022/05/05 04:04:06;;;;;;;116.78;105.15;;;9.30;64.70;;;;;;5014854;28;20072;-74
2022/05/05 04:06:33;;;;;;;115.03;104.32;;;9.30;65.00;;;;;;4996722;28;20046;-74
2022/05/05 04:09:03;;;;;;;113.80;103.10;;;9.30;65.10;;;;;;4996946;28;20129;-73
2022/05/05 04:11:31;;;;;;;113.55;102.75;;;9.30;65.30;;;;;;4996434;28;20050;-74
2022/05/05 04:13:58;;;;;;;116.35;105.20;;;9.20;65.50;;;;;;4996649;28;20046;-74
2022/05/05 04:16:25;;;;;;;114.72;104.03;;;9.20;65.50;;;;;;4997329;28;20050;-74
2022/05/05 04:18:52;;;;;;;131.48;105.93;;;9.10;65.70;;;;;;5014175;28;20140;-74
2022/05/05 04:21:19;;;;;;;143.02;106.95;;;9.10;65.90;;;;;;4996746;28;20480;-74
2022/05/05 04:23:45;;;;;;;137.35;105.93;;;9.10;66.20;;;;;;4996881;28;20121;-74
2022/05/05 04:26:13;;;;;;;272.45;115.70;;;9.10;66.40;;;;;;4996533;28;20051;-74
2022/05/05 04:28:42;;;;;;;139.75;104.85;;;9.10;66.60;;;;;;4996579;28;20064;-74
2022/05/05 04:31:11;;;;;;;117.30;105.00;;;9.10;66.70;;;;;;4996974;28;20544;-74
2022/05/05 04:33:39;;;;;;;116.60;105.40;;;9.00;66.90;;;;;;5012535;28;20050;-74
2022/05/05 04:36:07;;;;;;;116.22;104.45;;;9.00;67.00;;;;;;5014771;28;20105;-74
2022/05/05 04:38:34;;;;;;;115.72;103.50;;;9.00;67.10;;;;;;4996298;28;20472;-74
2022/05/05 04:41:02;;;;;;;121.88;106.40;;;9.00;67.00;;;;;;4996449;28;20138;-74
2022/05/05 04:43:29;;;;;;;119.00;105.95;;;9.00;67.10;;;;;;4996163;28;20061;-74
2022/05/05 04:45:57;;;;;;;115.72;104.07;;;9.00;67.30;;;;;;5014557;28;20050;-74
2022/05/05 04:48:24;;;;;;;120.35;107.47;;;9.00;67.60;;;;;;5013815;28;20596;-74
2022/05/05 04:50:51;;;;;;;122.32;109.38;;;9.00;67.70;;;;;;5014072;28;20086;-73
2022/05/05 04:53:18;;;;;;;115.90;104.43;;;9.00;67.90;;;;;;5013940;28;20054;-74
2022/05/05 04:55:45;;;;;;;117.15;105.50;;;9.00;68.00;;;;;;4996763;28;20050;-74
2022/05/05 04:58:12;;;;;;;115.38;104.53;;;9.00;68.10;;;;;;5013386;28;20655;-74
2022/05/05 05:00:39;;;;;;;117.40;105.95;;;8.90;68.30;;;;;;5014074;28;20622;-74
2022/05/05 05:03:32;;;;;;;117.38;106.32;;;8.90;68.50;;;;;;4996247;28;20051;-74
2022/05/05 05:05:55;;;;;;;117.00;105.82;;;8.90;68.70;;;;;;4995715;28;20179;-74
2022/05/05 05:08:22;;;;;;;118.07;107.05;;;8.90;68.90;;;;;;4995946;28;20058;-73
2022/05/05 05:10:49;;;;;;;116.40;105.50;;;8.90;69.30;;;;;;4996112;28;20054;-74
2022/05/05 05:13:16;;;;;;;118.13;106.90;;;8.90;69.70;;;;;;5013858;28;20089;-74
2022/05/05 05:15:43;;;;;;;119.95;108.80;;;8.90;70.10;;;;;;5013925;28;20054;-74
2022/05/05 05:18:12;;;;;;;121.20;109.53;;;8.90;70.40;;;;;;4995589;28;20051;-74
2022/05/05 05:20:38;;;;;;;121.60;110.30;;;8.80;70.90;;;;;;4996107;28;20552;-74
2022/05/05 05:23:06;;;;;;;120.72;109.38;;;8.80;71.30;;;;;;4996039;28;20117;-73
2022/05/05 05:25:32;;;;;;;120.13;108.70;;;8.80;71.90;;;;;;4996025;28;20050;-74
2022/05/05 05:27:59;;;;;;;120.50;109.25;;;8.80;72.50;;;;;;5013484;28;20424;-74
2022/05/05 05:30:26;;;;;;;119.70;108.25;;;8.80;73.00;;;;;;4995964;28;20042;-74
2022/05/05 05:32:53;;;;;;;119.78;108.03;;;8.80;73.50;;;;;;4995505;28;20086;-74
2022/05/05 05:35:22;;;;;;;119.10;107.60;;;8.80;74.00;;;;;;4996158;28;20554;-74
2022/05/05 05:37:51;;;;;;;124.13;111.07;;;8.80;74.30;;;;;;5011951;28;20061;-74
2022/05/05 05:40:18;;;;;;;122.80;109.57;;;8.90;74.80;;;;;;4995551;28;20094;-74
2022/05/05 05:42:45;;;;;;;123.38;110.55;;;8.90;75.20;;;;;;5012397;28;20133;-73
2022/05/05 05:45:12;;;;;;;122.00;109.60;;;8.90;75.60;;;;;;4994531;28;20537;-74
2022/05/05 05:47:38;;;;;;;123.22;110.97;;;9.00;76.10;;;;;;4995180;28;20057;-73
2022/05/05 05:50:06;;;;;;;122.13;109.97;;;9.00;76.70;;;;;;4995543;28;20515;-73
2022/05/05 05:52:34;;;;;;;121.70;108.90;;;9.00;77.10;;;;;;4995456;28;20418;-73
2022/05/05 05:55:01;;;;;;;162.52;111.57;;;9.00;77.10;;;;;;5013051;28;20065;-73
2022/05/05 05:57:29;;;;;;;120.63;108.53;;;9.00;77.70;;;;;;4995031;28;20054;-74
2022/05/05 05:59:56;;;;;;;118.85;107.57;;;9.10;78.20;;;;;;4995409;28;20050;-73
2022/05/05 06:05:08;;;;;;;120.30;108.22;;;9.10;78.60;;;;;;4995911;28;20057;-73
2022/05/05 06:07:36;;;;;;;118.45;107.18;;;9.10;78.60;;;;;;4994942;28;20046;-73
2022/05/05 06:10:04;;;;;;;119.32;107.78;;;9.20;79.20;;;;;;5013085;28;20057;-73
2022/05/05 06:12:31;;;;;;;120.75;109.13;;;9.20;79.30;;;;;;5012952;28;20050;-74
2022/05/05 06:14:58;;;;;;;121.05;109.15;;;9.20;79.30;;;;;;4995249;28;20050;-73
2022/05/05 06:17:25;;;;;;;121.13;109.05;;;9.20;79.60;;;;;;4994747;28;20568;-73
2022/05/05 06:19:52;;;;;;;119.68;107.95;;;9.20;79.80;;;;;;5012824;28;20125;-73
2022/05/05 06:22:19;;;;;;;119.60;108.20;;;9.30;80.20;;;;;;5012395;28;20073;-73
2022/05/05 06:24:47;;;;;;;119.45;107.85;;;9.30;80.30;;;;;;4994743;28;20054;-73
2022/05/05 06:27:14;;;;;;;120.63;108.03;;;9.30;80.50;;;;;;4994705;28;20453;-73
2022/05/05 06:29:41;;;;;;;119.95;108.47;;;9.40;80.70;;;;;;4995033;28;20133;-74
2022/05/05 06:32:11;;;;;;;122.13;110.45;;;9.40;80.70;;;;;;4994704;28;20122;-73
2022/05/05 06:34:39;;;;;;;121.95;110.22;;;9.40;80.60;;;;;;4994832;28;20093;-73
2022/05/05 06:37:06;;;;;;;123.95;111.65;;;9.50;81.00;;;;;;5012713;28;20064;-73
2022/05/05 06:39:32;;;;;;;122.10;110.60;;;9.60;81.40;;;;;;4994937;28;20568;-73
2022/05/05 06:42:01;;;;;;;124.03;111.88;;;9.60;81.50;;;;;;4994667;28;20066;-73
2022/05/05 06:44:29;;;;;;;122.68;110.85;;;9.60;81.60;;;;;;4994905;28;20047;-73
2022/05/05 06:46:58;;;;;;;123.55;111.47;;;9.70;82.10;;;;;;5012574;28;20087;-73
2022/05/05 06:49:25;;;;;;;120.53;109.32;;;9.80;82.00;;;;;;5012571;28;20064;-73
2022/05/05 06:51:52;;;;;;;122.47;110.65;;;9.80;81.90;;;;;;4994510;28;20527;-73
2022/05/05 06:54:19;;;;;;;120.60;109.07;;;9.90;81.80;;;;;;4994704;28;20121;-73
2022/05/05 06:56:46;;;;;;;117.93;106.43;;;10.00;81.80;;;;;;5014039;28;20145;-73
2022/05/05 06:59:14;;;;;;;122.95;111.05;;;10.00;82.00;;;;;;4997945;28;20137;-73
2022/05/05 07:01:53;;;;;;;119.57;106.85;;;10.10;81.80;;;;;;4997954;28;20547;-73
2022/05/05 07:07:05;;;;;;;120.63;108.93;;;10.30;82.40;;;;;;4997954;28;20104;-73
2022/05/05 07:12:17;;;;;;;118.38;106.95;;;10.50;81.90;;;;;;4997920;28;20456;-73
2022/05/05 07:14:45;;;;;;;120.70;108.65;;;10.60;82.10;;;;;;4997604;28;20137;-74
2022/05/05 07:17:13;;;;;;;117.75;106.18;;;10.60;81.90;;;;;;4997774;28;20050;-74
2022/05/05 07:19:41;;;;;;;117.82;106.18;;;10.70;81.80;;;;;;4997784;28;20057;-73
2022/05/05 07:22:08;;;;;;;117.78;106.32;;;10.80;81.40;;;;;;4997854;28;20335;-74
2022/05/05 07:24:35;;;;;;;117.97;106.63;;;10.90;81.40;;;;;;4997765;28;20125;-73
2022/05/05 07:27:04;;;;;;;116.20;104.95;;;10.90;80.90;;;;;;4997859;28;20054;-73
2022/05/05 07:29:32;;;;;;;117.03;105.72;;;11.00;80.50;;;;;;4997457;28;20042;-74
2022/05/05 07:32:00;;;;;;;115.40;104.20;;;11.10;80.20;;;;;;4997514;28;20058;-73
2022/05/05 07:34:27;;;;;;;118.50;105.40;;;11.20;79.70;;;;;;5015393;28;20512;-73
2022/05/05 07:36:54;;;;;;;117.25;105.18;;;11.20;79.30;;;;;;4997140;28;20050;-73
2022/05/05 07:39:22;;;;;;;116.03;104.50;;;11.30;79.00;;;;;;5014872;28;20141;-73
2022/05/05 07:41:49;;;;;;;118.43;106.40;;;11.40;78.10;;;;;;4997433;28;20050;-73
2022/05/05 07:44:16;;;;;;;114.88;103.63;;;11.50;77.30;;;;;;4997383;28;20137;-73
2022/05/05 07:46:43;;;;;;;113.95;103.00;;;11.60;76.40;;;;;;5014321;28;20141;-73
2022/05/05 07:49:12;;;;;;;114.95;104.07;;;11.70;75.50;;;;;;4997405;28;20137;-73
2022/05/05 07:51:39;;;;;;;114.45;103.55;;;11.80;74.70;;;;;;5014954;28;20121;-73
2022/05/05 07:56:51;;;;;;;113.72;103.00;;;12.00;73.40;;;;;;5014279;28;20050;-74
2022/05/05 07:59:19;;;;;;;115.05;104.07;;;12.10;72.90;;;;;;4996782;28;20054;-73
2022/05/05 08:01:46;;;;;;;114.43;103.65;;;12.10;72.50;;;;;;5014737;28;20081;-73
2022/05/05 08:04:14;;;;;;;116.03;104.72;;;12.20;72.40;;;;;;4996991;28;20056;-73
2022/05/05 08:06:41;;;;;;;114.75;104.15;;;12.30;72.10;;;;;;4997129;28;20121;-74
2022/05/05 08:09:08;;;;;;;115.22;104.30;;;12.40;72.00;;;;;;4995893;28;20136;-73
2022/05/05 08:11:36;;;;;;;114.65;104.00;;;12.50;71.80;;;;;;4996891;28;20054;-73
2022/05/05 08:14:04;;;;;;;114.82;103.78;;;12.60;71.70;;;;;;4996833;28;20046;-74
2022/05/05 08:16:31;;;;;;;114.85;103.88;;;12.60;71.30;;;;;;5014948;28;20136;-74
2022/05/05 08:18:58;;;;;;;115.55;104.57;;;12.70;71.30;;;;;;5014261;28;20059;-74
2022/05/05 08:21:27;;;;;;;113.60;102.97;;;12.80;71.50;;;;;;4996618;28;20050;-74
2022/05/05 08:28:28;;;;;;;113.35;102.65;;;12.80;71.00;;;;;;4996931;28;20046;-74
2022/05/05 08:29:28;;;;;;;113.55;102.85;;;13.00;70.80;;;;;;4987439;28;20504;-74
2022/05/05 08:31:55;;;;;;;114.55;104.05;;;13.00;70.30;;;;;;4996215;28;20064;-74
2022/05/05 08:34:22;;;;;;;114.72;103.85;;;13.10;70.00;;;;;;5014318;28;20501;-73
2022/05/05 08:36:51;;;;;;;114.32;103.50;;;13.20;70.40;;;;;;4996681;28;20050;-74
2022/05/05 08:39:18;;;;;;;115.47;104.43;;;13.20;70.40;;;;;;4996307;28;20048;-74
2022/05/05 08:41:46;;;;;;;116.28;105.45;;;13.30;70.00;;;;;;5014063;28;20832;-73
2022/05/05 08:44:13;;;;;;;115.10;104.30;;;13.30;70.00;;;;;;4996573;28;20145;-74
2022/05/05 08:46:41;;;;;;;116.95;106.07;;;13.40;70.00;;;;;;4996253;28;20050;-74
2022/05/05 08:49:09;;;;;;;115.70;103.70;;;13.50;70.20;;;;;;4996444;28;20050;-74
2022/05/05 08:51:42;;;;;;;115.65;104.68;;;13.60;70.20;;;;;;4996427;28;20619;-74
2022/05/05 08:54:13;;;;;;;115.75;105.25;;;13.70;70.10;;;;;;4996175;28;20043;-74
2022/05/05 08:56:40;;;;;;;116.15;105.20;;;13.80;69.40;;;;;;5013320;28;20080;-74
2022/05/05 08:59:09;;;;;;;116.32;105.47;;;13.90;69.30;;;;;;4995920;28;20054;-74
2022/05/05 09:01:38;;;;;;;115.90;104.97;;;13.90;69.40;;;;;;4996359;28;20633;-74
2022/05/05 09:04:06;;;;;;;115.88;105.40;;;14.00;68.80;;;;;;4996590;28;20559;-74
2022/05/05 09:06:44;;;;;;;117.18;106.07;;;14.10;68.80;;;;;;4996353;28;20046;-74
2022/05/05 09:09:30;;;;;;;116.57;106.10;;;14.10;69.00;;;;;;5013929;28;20051;-74
2022/05/05 09:12:14;;;;;;;115.97;105.28;;;14.20;69.10;;;;;;4996138;28;20134;-74
2022/05/05 09:14:44;;;;;;;116.70;106.10;;;14.30;68.70;;;;;;4995990;28;20134;-74
2022/05/05 09:17:13;;;;;;;119.97;109.15;;;14.40;68.70;;;;;;4995878;28;20471;-74
2022/05/05 09:19:42;;;;;;;116.72;105.95;;;14.40;68.20;;;;;;5013956;28;20119;-74
2022/05/05 09:22:10;;;;;;;114.70;104.40;;;14.50;68.10;;;;;;4995848;28;20070;-74
2022/05/05 09:24:44;;;;;;;116.20;105.82;;;14.60;68.30;;;;;;5013587;28;20050;-74
2022/05/05 09:27:19;;;;;;;120.07;109.28;;;14.70;68.20;;;;;;4995688;28;20375;-74
2022/05/05 09:30:04;;;;;;;119.43;108.88;;;14.80;67.70;;;;;;4996026;28;20138;-74
2022/05/05 09:32:33;;;;;;;118.68;107.72;;;14.90;67.60;;;;;;5013455;28;20133;-74
2022/05/05 09:35:03;;;;;;;119.80;108.97;;;14.90;68.00;;;;;;5013401;28;20055;-74
2022/05/05 09:37:30;;;;;;;118.82;108.03;;;15.00;67.70;;;;;;5013195;28;20169;-74
2022/05/05 09:40:00;;;;;;;119.75;108.70;;;15.10;67.20;;;;;;4996085;28;20512;-74
2022/05/05 09:42:41;;;;;;;119.93;109.43;;;15.20;66.90;;;;;;4995684;28;20050;-74
2022/05/05 09:45:22;;;;;;;120.60;109.90;;;15.20;66.20;;;;;;4995652;28;20065;-74
2022/05/05 09:47:52;;;;;;;120.75;110.00;;;15.30;65.70;;;;;;5013593;28;20062;-74
2022/05/05 09:50:21;;;;;;;119.75;109.10;;;15.40;65.80;;;;;;4995804;28;20053;-74
2022/05/05 09:58:22;;;;;;;120.15;109.55;;;15.50;65.50;;;;;;4994564;28;20505;-74
2022/05/05 10:00:58;;;;;;;119.82;109.05;;;15.60;65.10;;;;;;4995485;28;20046;-74
2022/05/05 10:06:18;;;;;;;121.32;110.60;;;15.80;65.60;;;;;;4995143;28;20327;-74
2022/05/05 10:08:47;;;;;;;120.03;109.50;;;15.80;65.30;;;;;;4994976;28;20053;-74
2022/05/05 10:11:15;;;;;;;120.93;110.55;;;15.90;64.30;;;;;;4995642;28;20054;-74
2022/05/05 10:13:45;;;;;;;160.50;112.35;;;15.90;64.10;;;;;;4995017;28;20691;-74
2022/05/05 10:16:14;;;;;;;119.78;109.53;;;16.00;64.50;;;;;;5012618;28;20050;-74
2022/05/05 10:18:43;;;;;;;120.20;109.78;;;16.10;65.00;;;;;;4994631;28;20053;-74
2022/05/05 10:21:15;;;;;;;119.78;109.38;;;16.20;64.80;;;;;;4995436;28;20481;-74
2022/05/05 10:23:59;;;;;;;119.65;109.45;;;16.30;64.90;;;;;;4995124;28;20535;-74
2022/05/05 10:26:27;;;;;;;122.03;111.30;;;16.40;64.20;;;;;;4995131;28;20047;-74
2022/05/05 10:28:54;;;;;;;123.43;112.88;;;16.50;64.90;;;;;;4994464;28;20086;-74
2022/05/05 10:31:44;;;;;;;121.70;111.20;;;16.50;64.30;;;;;;4994688;28;20050;-74
2022/05/05 10:34:19;;;;;;;121.78;111.40;;;16.60;64.50;;;;;;4995141;28;20081;-74
2022/05/05 10:37:05;;;;;;;123.43;112.65;;;16.70;63.10;;;;;;4994770;28;20051;-74
2022/05/05 10:39:47;;;;;;;122.40;111.90;;;16.80;62.70;;;;;;4994967;28;20406;-74
2022/05/05 10:42:17;;;;;;;120.88;110.50;;;16.90;62.30;;;;;;4995477;28;20137;-74
2022/05/05 10:45:11;;;;;;;121.57;111.28;;;16.90;62.60;;;;;;4995227;28;20054;-74
2022/05/05 10:48:17;;;;;;;120.18;109.97;;;17.00;62.40;;;;;;4994397;28;20051;-74
2022/05/05 10:50:53;;;;;;;122.00;111.45;;;17.00;62.90;;;;;;4994828;28;20046;-74
2022/05/05 10:53:42;;;;;;;122.13;111.63;;;17.10;62.30;;;;;;5012315;28;20401;-74
2022/05/05 10:56:30;;;;;;;123.68;113.15;;;17.30;61.90;;;;;;4990051;28;20042;-74
2022/05/05 10:59:06;;;;;;;121.45;111.15;;;17.40;61.00;;;;;;4994249;28;20050;-74
2022/05/05 11:01:58;;;;;;;124.25;113.88;;;17.40;60.30;;;;;;4994618;28;20050;-74
2022/05/05 11:04:30;;;;;;;125.53;114.80;;;17.50;59.80;;;;;;4986355;28;20070;-74
2022/05/05 11:07:36;;;;;;;124.50;114.13;;;17.60;59.40;;;;;;5011940;28;20090;-74
2022/05/05 11:10:06;;;;;;;132.57;121.60;;;17.60;58.80;;;;;;4994608;28;20140;-74
2022/05/05 11:12:37;;;;;;;123.68;113.38;;;17.70;58.20;;;;;;4994383;28;20052;-74
2022/05/05 11:23:28;;;;;;;123.10;112.65;;;17.80;57.60;;;;;;4994356;28;20050;-74
2022/05/05 11:25:56;;;;;;;122.88;112.88;;;17.80;57.60;;;;;;5011975;28;20061;-74
2022/05/05 11:28:23;;;;;;;125.75;114.80;;;17.80;57.70;;;;;;5011613;28;20042;-74
2022/05/05 11:30:52;;;;;;;121.53;111.53;;;17.90;57.80;;;;;;4994565;28;20425;-74
2022/05/05 11:33:20;;;;;;;122.15;111.80;;;17.90;57.50;;;;;;4993805;28;20488;-74
2022/05/05 11:36:02;;;;;;;123.70;113.50;;;17.90;57.30;;;;;;4994014;28;20061;-74
2022/05/05 11:38:29;;;;;;;122.38;112.03;;;18.00;57.20;;;;;;4994166;28;20069;-74
2022/05/05 11:41:01;;;;;;;122.28;112.07;;;18.00;57.40;;;;;;5011559;28;20057;-75
2022/05/05 11:46:16;;;;;;;122.75;112.63;;;18.10;58.90;;;;;;4997539;28;20129;-74
2022/05/05 11:48:44;;;;;;;124.70;114.60;;;18.20;59.30;;;;;;4996821;28;20114;-75
2022/05/05 11:51:11;;;;;;;124.10;114.13;;;18.30;58.10;;;;;;4997037;28;20105;-74
2022/05/05 11:53:38;;;;;;;124.70;114.80;;;18.40;58.30;;;;;;5014428;28;20129;-74
2022/05/05 11:56:12;;;;;;;122.78;113.03;;;18.50;58.60;;;;;;4997184;28;20050;-74
2022/05/05 12:01:40;;;;;;;124.03;113.22;;;18.60;58.30;;;;;;4997084;28;20507;-74
2022/05/05 12:04:09;;;;;;;120.15;110.57;;;18.80;58.20;;;;;;4997413;28;20198;-75
2022/05/05 12:06:38;;;;;;;126.90;116.35;;;18.90;58.70;;;;;;5014334;28;20089;-75
2022/05/05 12:09:07;;;;;;;128.48;118.18;;;18.90;57.80;;;;;;4996971;28;20137;-74
2022/05/05 12:11:35;;;;;;;126.90;116.68;;;19.00;56.90;;;;;;4996874;28;20053;-74
2022/05/05 12:14:05;;;;;;;129.48;118.50;;;19.10;57.50;;;;;;4996610;28;20054;-74
2022/05/05 12:16:35;;;;;;;128.75;118.45;;;19.10;57.20;;;;;;5014626;28;20082;-75
2022/05/05 12:19:10;;;;;;;130.05;119.35;;;19.10;56.60;;;;;;5014456;28;20063;-74
2022/05/05 12:21:38;;;;;;;;;;;19.20;56.30;;;;;;5015207;28;20054;-75
2022/05/05 12:24:07;;;;;;;124.68;113.90;;;19.20;56.10;;;;;;4997291;28;19977;-74
2022/05/05 12:26:36;;;;;;;123.60;113.60;;;19.30;56.70;;;;;;5014662;28;20057;-74
2022/05/05 12:29:13;;;;;;;124.43;114.15;;;19.30;57.40;;;;;;5014165;28;20054;-75
2022/05/05 12:31:52;;;;;;;127.05;117.13;;;19.40;57.80;;;;;;5013948;28;20050;-75
2022/05/05 12:34:28;;;;;;;125.50;115.70;;;19.50;57.90;;;;;;5012990;28;20061;-75
2022/05/05 12:37:17;;;;;;;127.63;117.13;;;19.60;58.00;;;;;;4996799;28;20055;-74
2022/05/05 12:39:52;;;;;;;128.98;118.90;;;19.70;57.60;;;;;;4996283;28;20575;-74
2022/05/05 12:42:21;;;;;;;128.82;118.72;;;19.80;57.20;;;;;;4996784;28;20509;-74
2022/05/05 12:44:49;;;;;;;131.38;120.88;;;19.90;57.00;;;;;;4996123;28;20113;-75
2022/05/05 12:47:22;;;;;;;128.80;119.07;;;20.00;55.30;;;;;;4996198;28;20416;-75
2022/05/05 12:49:49;;;;;;;130.63;120.50;;;20.10;55.00;;;;;;4996428;28;20428;-74
2022/05/05 13:00:43;;;;;;;127.05;117.13;;;20.40;55.10;;;;;;4996269;28;19929;-75
2022/05/05 13:03:12;;;;;;;126.82;117.10;;;20.50;53.60;;;;;;4996471;28;20060;-74
2022/05/05 13:05:39;;;;;;;126.97;117.38;;;20.50;52.70;;;;;;4995727;28;20536;-74
2022/05/05 13:08:06;;;;;;;128.30;118.60;;;20.60;52.50;;;;;;4995737;28;20057;-75
2022/05/05 13:10:33;;;;;;;129.88;119.95;;;20.60;52.00;;;;;;4995927;28;20097;-75
2022/05/05 13:13:00;;;;;;;129.48;119.68;;;20.70;52.10;;;;;;4995610;28;20054;-75
2022/05/05 13:15:28;;;;;;;130.57;120.97;;;20.70;52.60;;;;;;5013222;28;20054;-75